sensor_id;sensor_type;location;lat;lon;timestamp;P1;durP1;ratioP1;P2;durP2;ratioP2
26820;SDS011;37186;51.394;5.454;2023-06-04T00:01:32;4.07;;;3.97;;
26820;SDS011;37186;51.394;5.454;2023-06-04T00:04:32;3.40;;;3.30;;
26820;SDS011;37186;51.394;5.454;2023-06-04T00:07:33;3.30;;;3.20;;
26820;SDS011;37186;51.394;5.454;2023-06-04T00:10:33;3.58;;;3.47;;
26820;SDS011;37186;51.394;5.454;2023-06-04T00:13:34;3.45;;;3.35;;
26820;SDS011;37186;51.394;5.454;2023-06-04T00:16:34;3.90;;;3.80;;
26820;SDS011;37186;51.394;5.454;2023-06-04T00:19:38;4.00;;;3.90;;
26820;SDS011;37186;51.394;5.454;2023-06-04T00:22:40;3.72;;;3.63;;
26820;SDS011;37186;51.394;5.454;2023-06-04T00:25:41;3.80;;;3.70;;
26820;SDS011;37186;51.394;5.454;2023-06-04T00:28:42;3.20;;;3.10;;
26820;SDS011;37186;51.394;5.454;2023-06-04T00:31:42;3.28;;;3.17;;
26820;SDS011;37186;51.394;5.454;2023-06-04T00:34:43;3.28;;;3.17;;
26820;SDS011;37186;51.394;5.454;2023-06-04T00:37:49;3.80;;;3.70;;
26820;SDS011;37186;51.394;5.454;2023-06-04T00:40:50;3.50;;;3.40;;
26820;SDS011;37186;51.394;5.454;2023-06-04T00:43:50;3.50;;;3.40;;
26820;SDS011;37186;51.394;5.454;2023-06-04T00:46:58;3.88;;;3.78;;
26820;SDS011;37186;51.394;5.454;2023-06-04T00:49:58;3.85;;;3.75;;
26820;SDS011;37186;51.394;5.454;2023-06-04T00:52:59;3.95;;;3.85;;
26820;SDS011;37186;51.394;5.454;2023-06-04T00:56:00;4.57;;;4.47;;
26820;SDS011;37186;51.394;5.454;2023-06-04T00:59:01;3.97;;;3.88;;
26820;SDS011;37186;51.394;5.454;2023-06-04T01:02:03;4.03;;;3.92;;
26820;SDS011;37186;51.394;5.454;2023-06-04T01:05:14;3.72;;;3.63;;
26820;SDS011;37186;51.394;5.454;2023-06-04T01:08:36;3.40;;;3.30;;
26820;SDS011;37186;51.394;5.454;2023-06-04T01:11:38;3.70;;;3.60;;
26820;SDS011;37186;51.394;5.454;2023-06-04T01:14:40;3.65;;;3.55;;
26820;SDS011;37186;51.394;5.454;2023-06-04T01:17:41;3.72;;;3.63;;
26820;SDS011;37186;51.394;5.454;2023-06-04T01:20:46;3.60;;;3.50;;
26820;SDS011;37186;51.394;5.454;2023-06-04T01:23:49;3.70;;;3.60;;
26820;SDS011;37186;51.394;5.454;2023-06-04T01:27:00;3.50;;;3.40;;
26820;SDS011;37186;51.394;5.454;2023-06-04T01:30:02;3.78;;;3.67;;
26820;SDS011;37186;51.394;5.454;2023-06-04T01:33:03;3.60;;;3.50;;
26820;SDS011;37186;51.394;5.454;2023-06-04T01:36:04;3.60;;;3.50;;
26820;SDS011;37186;51.394;5.454;2023-06-04T01:39:06;3.60;;;3.50;;
26820;SDS011;37186;51.394;5.454;2023-06-04T01:42:06;3.83;;;3.72;;
26820;SDS011;37186;51.394;5.454;2023-06-04T01:45:08;3.70;;;3.60;;
26820;SDS011;37186;51.394;5.454;2023-06-04T01:48:09;3.70;;;3.60;;
26820;SDS011;37186;51.394;5.454;2023-06-04T01:51:09;3.50;;;3.40;;
26820;SDS011;37186;51.394;5.454;2023-06-04T01:54:10;3.50;;;3.40;;
26820;SDS011;37186;51.394;5.454;2023-06-04T01:57:10;3.35;;;3.25;;
26820;SDS011;37186;51.394;5.454;2023-06-04T02:00:11;3.28;;;3.17;;
26820;SDS011;37186;51.394;5.454;2023-06-04T02:03:12;3.58;;;3.47;;
26820;SDS011;37186;51.394;5.454;2023-06-04T02:06:15;3.45;;;3.35;;
26820;SDS011;37186;51.394;5.454;2023-06-04T02:09:16;3.80;;;3.70;;
26820;SDS011;37186;51.394;5.454;2023-06-04T02:12:16;3.72;;;3.63;;
26820;SDS011;37186;51.394;5.454;2023-06-04T02:15:17;3.80;;;3.70;;
26820;SDS011;37186;51.394;5.454;2023-06-04T02:18:18;3.97;;;3.88;;
26820;SDS011;37186;51.394;5.454;2023-06-04T02:21:22;4.20;;;4.10;;
26820;SDS011;37186;51.394;5.454;2023-06-04T02:24:22;4.10;;;4.00;;
26820;SDS011;37186;51.394;5.454;2023-06-04T02:27:23;4.25;;;4.15;;
26820;SDS011;37186;51.394;5.454;2023-06-04T02:30:23;4.10;;;4.00;;
26820;SDS011;37186;51.394;5.454;2023-06-04T02:33:24;3.72;;;3.63;;
26820;SDS011;37186;51.394;5.454;2023-06-04T02:36:24;3.90;;;3.80;;
26820;SDS011;37186;51.394;5.454;2023-06-04T02:39:25;3.58;;;3.47;;
26820;SDS011;37186;51.394;5.454;2023-06-04T02:42:26;3.30;;;3.20;;
26820;SDS011;37186;51.394;5.454;2023-06-04T02:45:26;3.25;;;3.15;;
26820;SDS011;37186;51.394;5.454;2023-06-04T02:48:28;3.03;;;2.92;;
26820;SDS011;37186;51.394;5.454;2023-06-04T02:51:29;3.33;;;3.22;;
26820;SDS011;37186;51.394;5.454;2023-06-04T02:54:29;3.08;;;2.97;;
26820;SDS011;37186;51.394;5.454;2023-06-04T02:57:30;3.25;;;3.15;;
26820;SDS011;37186;51.394;5.454;2023-06-04T03:00:31;3.10;;;3.00;;
26820;SDS011;37186;51.394;5.454;2023-06-04T03:03:31;3.17;;;3.08;;
26820;SDS011;37186;51.394;5.454;2023-06-04T03:06:33;3.35;;;3.25;;
26820;SDS011;37186;51.394;5.454;2023-06-04T03:09:34;3.40;;;3.30;;
26820;SDS011;37186;51.394;5.454;2023-06-04T03:12:35;3.30;;;3.20;;
26820;SDS011;37186;51.394;5.454;2023-06-04T03:15:35;3.00;;;2.90;;
26820;SDS011;37186;51.394;5.454;2023-06-04T03:18:42;3.20;;;3.10;;
26820;SDS011;37186;51.394;5.454;2023-06-04T03:21:44;3.20;;;3.10;;
26820;SDS011;37186;51.394;5.454;2023-06-04T03:24:44;3.30;;;3.20;;
26820;SDS011;37186;51.394;5.454;2023-06-04T03:27:45;3.30;;;3.20;;
26820;SDS011;37186;51.394;5.454;2023-06-04T03:30:45;3.10;;;3.00;;
26820;SDS011;37186;51.394;5.454;2023-06-04T03:33:46;3.30;;;3.20;;
26820;SDS011;37186;51.394;5.454;2023-06-04T03:36:47;3.10;;;3.00;;
26820;SDS011;37186;51.394;5.454;2023-06-04T03:39:47;3.20;;;3.10;;
26820;SDS011;37186;51.394;5.454;2023-06-04T03:42:48;3.20;;;3.10;;
26820;SDS011;37186;51.394;5.454;2023-06-04T03:45:48;3.03;;;2.93;;
26820;SDS011;37186;51.394;5.454;2023-06-04T03:48:49;3.40;;;3.30;;
26820;SDS011;37186;51.394;5.454;2023-06-04T03:51:49;3.30;;;3.20;;
26820;SDS011;37186;51.394;5.454;2023-06-04T03:54:50;3.40;;;3.30;;
26820;SDS011;37186;51.394;5.454;2023-06-04T03:57:51;3.40;;;3.30;;
26820;SDS011;37186;51.394;5.454;2023-06-04T04:00:52;3.50;;;3.40;;
26820;SDS011;37186;51.394;5.454;2023-06-04T04:03:52;3.57;;;3.47;;
26820;SDS011;37186;51.394;5.454;2023-06-04T04:06:53;3.77;;;3.67;;
26820;SDS011;37186;51.394;5.454;2023-06-04T04:09:53;3.93;;;3.83;;
26820;SDS011;37186;51.394;5.454;2023-06-04T04:12:54;3.93;;;3.83;;
26820;SDS011;37186;51.394;5.454;2023-06-04T04:15:57;4.00;;;3.90;;
26820;SDS011;37186;51.394;5.454;2023-06-04T04:18:58;4.07;;;3.97;;
26820;SDS011;37186;51.394;5.454;2023-06-04T04:21:58;3.90;;;3.80;;
26820;SDS011;37186;51.394;5.454;2023-06-04T04:24:59;3.80;;;3.70;;
26820;SDS011;37186;51.394;5.454;2023-06-04T04:28:01;3.90;;;3.80;;
26820;SDS011;37186;51.394;5.454;2023-06-04T04:31:02;4.20;;;4.10;;
26820;SDS011;37186;51.394;5.454;2023-06-04T04:34:02;4.10;;;4.00;;
26820;SDS011;37186;51.394;5.454;2023-06-04T04:37:08;4.00;;;3.90;;
26820;SDS011;37186;51.394;5.454;2023-06-04T04:40:09;4.00;;;3.90;;
26820;SDS011;37186;51.394;5.454;2023-06-04T04:43:10;4.10;;;4.00;;
26820;SDS011;37186;51.394;5.454;2023-06-04T04:46:11;4.10;;;4.00;;
26820;SDS011;37186;51.394;5.454;2023-06-04T04:49:11;4.17;;;4.07;;
26820;SDS011;37186;51.394;5.454;2023-06-04T04:52:12;3.67;;;3.57;;
26820;SDS011;37186;51.394;5.454;2023-06-04T04:55:12;3.43;;;3.33;;
26820;SDS011;37186;51.394;5.454;2023-06-04T04:58:13;3.50;;;3.40;;
26820;SDS011;37186;51.394;5.454;2023-06-04T05:01:14;3.43;;;3.33;;
26820;SDS011;37186;51.394;5.454;2023-06-04T05:04:14;3.40;;;3.30;;
26820;SDS011;37186;51.394;5.454;2023-06-04T05:07:15;3.53;;;3.43;;
26820;SDS011;37186;51.394;5.454;2023-06-04T05:10:16;3.53;;;3.43;;
26820;SDS011;37186;51.394;5.454;2023-06-04T05:13:17;3.47;;;3.37;;
26820;SDS011;37186;51.394;5.454;2023-06-04T05:16:17;3.43;;;3.33;;
26820;SDS011;37186;51.394;5.454;2023-06-04T05:19:20;4.20;;;4.10;;
26820;SDS011;37186;51.394;5.454;2023-06-04T05:22:20;4.37;;;4.27;;
26820;SDS011;37186;51.394;5.454;2023-06-04T05:25:21;4.03;;;3.93;;
26820;SDS011;37186;51.394;5.454;2023-06-04T05:28:22;3.93;;;3.83;;
26820;SDS011;37186;51.394;5.454;2023-06-04T05:31:25;3.73;;;3.63;;
26820;SDS011;37186;51.394;5.454;2023-06-04T05:34:29;3.60;;;3.50;;
26820;SDS011;37186;51.394;5.454;2023-06-04T05:37:29;3.67;;;3.57;;
26820;SDS011;37186;51.394;5.454;2023-06-04T05:40:30;3.45;;;3.35;;
26820;SDS011;37186;51.394;5.454;2023-06-04T05:43:31;3.33;;;3.23;;
26820;SDS011;37186;51.394;5.454;2023-06-04T05:46:31;3.20;;;3.10;;
26820;SDS011;37186;51.394;5.454;2023-06-04T05:49:33;3.37;;;3.27;;
26820;SDS011;37186;51.394;5.454;2023-06-04T05:52:34;3.50;;;3.40;;
26820;SDS011;37186;51.394;5.454;2023-06-04T05:55:36;3.47;;;3.37;;
26820;SDS011;37186;51.394;5.454;2023-06-04T05:58:37;3.30;;;3.20;;
26820;SDS011;37186;51.394;5.454;2023-06-04T06:01:37;3.53;;;3.43;;
26820;SDS011;37186;51.394;5.454;2023-06-04T06:04:38;3.40;;;3.30;;
26820;SDS011;37186;51.394;5.454;2023-06-04T06:07:38;3.40;;;3.30;;
26820;SDS011;37186;51.394;5.454;2023-06-04T06:10:39;3.28;;;3.17;;
26820;SDS011;37186;51.394;5.454;2023-06-04T06:13:40;3.17;;;3.07;;
26820;SDS011;37186;51.394;5.454;2023-06-04T06:16:40;3.17;;;3.08;;
26820;SDS011;37186;51.394;5.454;2023-06-04T06:19:41;2.90;;;2.80;;
26820;SDS011;37186;51.394;5.454;2023-06-04T06:22:41;3.00;;;2.90;;
26820;SDS011;37186;51.394;5.454;2023-06-04T06:25:42;3.05;;;2.95;;
26820;SDS011;37186;51.394;5.454;2023-06-04T06:28:45;3.07;;;2.97;;
26820;SDS011;37186;51.394;5.454;2023-06-04T06:31:46;3.03;;;2.93;;
26820;SDS011;37186;51.394;5.454;2023-06-04T06:34:47;3.05;;;2.95;;
26820;SDS011;37186;51.394;5.454;2023-06-04T06:37:47;3.08;;;2.97;;
26820;SDS011;37186;51.394;5.454;2023-06-04T06:40:48;2.97;;;2.88;;
26820;SDS011;37186;51.394;5.454;2023-06-04T06:43:48;3.28;;;3.17;;
26820;SDS011;37186;51.394;5.454;2023-06-04T06:46:50;3.13;;;3.03;;
26820;SDS011;37186;51.394;5.454;2023-06-04T06:49:51;2.90;;;2.80;;
26820;SDS011;37186;51.394;5.454;2023-06-04T06:52:51;2.92;;;2.83;;
26820;SDS011;37186;51.394;5.454;2023-06-04T06:55:52;2.92;;;2.83;;
26820;SDS011;37186;51.394;5.454;2023-06-04T06:58:52;3.03;;;2.92;;
26820;SDS011;37186;51.394;5.454;2023-06-04T07:01:53;3.25;;;3.15;;
26820;SDS011;37186;51.394;5.454;2023-06-04T07:04:53;3.10;;;3.00;;
26820;SDS011;37186;51.394;5.454;2023-06-04T07:07:54;3.25;;;3.15;;
26820;SDS011;37186;51.394;5.454;2023-06-04T07:10:57;3.60;;;3.50;;
26820;SDS011;37186;51.394;5.454;2023-06-04T07:13:58;3.40;;;3.30;;
26820;SDS011;37186;51.394;5.454;2023-06-04T07:16:58;3.40;;;3.30;;
26820;SDS011;37186;51.394;5.454;2023-06-04T07:19:59;3.35;;;3.25;;
26820;SDS011;37186;51.394;5.454;2023-06-04T07:23:00;3.25;;;3.15;;
26820;SDS011;37186;51.394;5.454;2023-06-04T07:26:00;3.47;;;3.38;;
26820;SDS011;37186;51.394;5.454;2023-06-04T07:29:01;3.55;;;3.45;;
26820;SDS011;37186;51.394;5.454;2023-06-04T07:32:02;3.47;;;3.38;;
26820;SDS011;37186;51.394;5.454;2023-06-04T07:35:02;3.47;;;3.38;;
26820;SDS011;37186;51.394;5.454;2023-06-04T07:38:04;3.55;;;3.45;;
26820;SDS011;37186;51.394;5.454;2023-06-04T07:41:04;3.60;;;3.50;;
26820;SDS011;37186;51.394;5.454;2023-06-04T07:44:05;3.55;;;3.45;;
26820;SDS011;37186;51.394;5.454;2023-06-04T07:47:05;4.00;;;3.90;;
26820;SDS011;37186;51.394;5.454;2023-06-04T07:50:06;3.95;;;3.85;;
26820;SDS011;37186;51.394;5.454;2023-06-04T07:53:07;3.95;;;3.85;;
26820;SDS011;37186;51.394;5.454;2023-06-04T07:56:07;3.85;;;3.75;;
26820;SDS011;37186;51.394;5.454;2023-06-04T07:59:08;4.20;;;4.10;;
26820;SDS011;37186;51.394;5.454;2023-06-04T08:02:09;4.32;;;4.22;;
26820;SDS011;37186;51.394;5.454;2023-06-04T08:05:10;4.45;;;4.35;;
26820;SDS011;37186;51.394;5.454;2023-06-04T08:08:13;4.60;;;4.50;;
26820;SDS011;37186;51.394;5.454;2023-06-04T08:11:14;4.60;;;4.50;;
26820;SDS011;37186;51.394;5.454;2023-06-04T08:14:15;5.15;;;5.05;;
26820;SDS011;37186;51.394;5.454;2023-06-04T08:17:16;5.03;;;4.93;;
26820;SDS011;37186;51.394;5.454;2023-06-04T08:20:16;5.45;;;5.35;;
26820;SDS011;37186;51.394;5.454;2023-06-04T08:23:17;5.60;;;5.50;;
26820;SDS011;37186;51.394;5.454;2023-06-04T08:26:18;5.72;;;5.60;;
26820;SDS011;37186;51.394;5.454;2023-06-04T08:29:19;5.93;;;5.72;;
26820;SDS011;37186;51.394;5.454;2023-06-04T08:32:19;5.55;;;5.45;;
26820;SDS011;37186;51.394;5.454;2023-06-04T08:35:20;5.32;;;5.22;;
26820;SDS011;37186;51.394;5.454;2023-06-04T08:38:21;5.65;;;5.55;;
26820;SDS011;37186;51.394;5.454;2023-06-04T08:41:28;5.10;;;5.00;;
26820;SDS011;37186;51.394;5.454;2023-06-04T08:44:30;5.20;;;5.10;;
26820;SDS011;37186;51.394;5.454;2023-06-04T08:47:32;5.10;;;5.00;;
26820;SDS011;37186;51.394;5.454;2023-06-04T08:50:34;4.65;;;4.55;;
26820;SDS011;37186;51.394;5.454;2023-06-04T08:53:36;3.97;;;3.88;;
26820;SDS011;37186;51.394;5.454;2023-06-04T08:56:37;4.07;;;3.97;;
26820;SDS011;37186;51.394;5.454;2023-06-04T08:59:37;3.90;;;3.80;;
26820;SDS011;37186;51.394;5.454;2023-06-04T09:02:38;3.90;;;3.80;;
26820;SDS011;37186;51.394;5.454;2023-06-04T09:05:38;3.70;;;3.60;;
26820;SDS011;37186;51.394;5.454;2023-06-04T09:08:42;3.80;;;3.70;;
26820;SDS011;37186;51.394;5.454;2023-06-04T09:14:51;3.50;;;3.40;;
26820;SDS011;37186;51.394;5.454;2023-06-04T09:17:52;3.20;;;3.10;;
26820;SDS011;37186;51.394;5.454;2023-06-04T09:21:03;3.40;;;3.30;;
26820;SDS011;37186;51.394;5.454;2023-06-04T09:24:05;3.47;;;3.38;;
26820;SDS011;37186;51.394;5.454;2023-06-04T09:27:09;3.20;;;3.10;;
26820;SDS011;37186;51.394;5.454;2023-06-04T09:30:11;3.20;;;3.10;;
26820;SDS011;37186;51.394;5.454;2023-06-04T09:33:12;3.20;;;3.10;;
26820;SDS011;37186;51.394;5.454;2023-06-04T09:36:13;3.20;;;3.10;;
26820;SDS011;37186;51.394;5.454;2023-06-04T09:39:16;3.10;;;3.00;;
26820;SDS011;37186;51.394;5.454;2023-06-04T09:42:17;3.28;;;3.17;;
26820;SDS011;37186;51.394;5.454;2023-06-04T09:45:26;3.30;;;3.20;;
26820;SDS011;37186;51.394;5.454;2023-06-04T09:48:29;3.20;;;3.10;;
26820;SDS011;37186;51.394;5.454;2023-06-04T09:51:29;3.10;;;3.00;;
26820;SDS011;37186;51.394;5.454;2023-06-04T09:54:35;3.13;;;3.03;;
26820;SDS011;37186;51.394;5.454;2023-06-04T09:57:36;3.05;;;2.95;;
26820;SDS011;37186;51.394;5.454;2023-06-04T10:00:39;3.75;;;3.65;;
26820;SDS011;37186;51.394;5.454;2023-06-04T10:03:42;4.00;;;3.90;;
26820;SDS011;37186;51.394;5.454;2023-06-04T10:06:48;4.70;;;4.60;;
26820;SDS011;37186;51.394;5.454;2023-06-04T10:09:49;4.72;;;4.63;;
26820;SDS011;37186;51.394;5.454;2023-06-04T10:12:56;5.15;;;5.05;;
26820;SDS011;37186;51.394;5.454;2023-06-04T10:16:07;4.68;;;4.57;;
26820;SDS011;37186;51.394;5.454;2023-06-04T10:19:07;4.60;;;4.50;;
26820;SDS011;37186;51.394;5.454;2023-06-04T10:22:09;4.05;;;3.95;;
26820;SDS011;37186;51.394;5.454;2023-06-04T10:25:11;3.92;;;3.83;;
26820;SDS011;37186;51.394;5.454;2023-06-04T10:28:12;3.83;;;3.72;;
26820;SDS011;37186;51.394;5.454;2023-06-04T10:31:15;3.92;;;3.83;;
26820;SDS011;37186;51.394;5.454;2023-06-04T10:34:15;3.83;;;3.72;;
26820;SDS011;37186;51.394;5.454;2023-06-04T10:37:21;3.83;;;3.72;;
26820;SDS011;37186;51.394;5.454;2023-06-04T10:40:30;3.63;;;3.53;;
26820;SDS011;37186;51.394;5.454;2023-06-04T10:43:34;3.15;;;3.05;;
26820;SDS011;37186;51.394;5.454;2023-06-04T10:46:39;3.50;;;3.40;;
26820;SDS011;37186;51.394;5.454;2023-06-04T10:49:42;3.40;;;3.30;;
26820;SDS011;37186;51.394;5.454;2023-06-04T10:52:55;3.78;;;3.67;;
26820;SDS011;37186;51.394;5.454;2023-06-04T10:56:02;3.63;;;3.53;;
26820;SDS011;37186;51.394;5.454;2023-06-04T10:59:16;3.85;;;3.75;;
26820;SDS011;37186;51.394;5.454;2023-06-04T11:02:17;4.13;;;4.03;;
26820;SDS011;37186;51.394;5.454;2023-06-04T11:05:18;4.13;;;4.03;;
26820;SDS011;37186;51.394;5.454;2023-06-04T11:08:26;4.38;;;4.28;;
26820;SDS011;37186;51.394;5.454;2023-06-04T11:11:28;4.35;;;4.25;;
26820;SDS011;37186;51.394;5.454;2023-06-04T11:14:29;4.13;;;4.03;;
26820;SDS011;37186;51.394;5.454;2023-06-04T11:17:30;4.40;;;4.30;;
26820;SDS011;37186;51.394;5.454;2023-06-04T11:20:31;4.50;;;4.40;;
26820;SDS011;37186;51.394;5.454;2023-06-04T11:23:33;4.45;;;4.35;;
26820;SDS011;37186;51.394;5.454;2023-06-04T11:26:33;4.60;;;4.50;;
26820;SDS011;37186;51.394;5.454;2023-06-04T11:29:35;5.25;;;5.15;;
26820;SDS011;37186;51.394;5.454;2023-06-04T11:32:36;5.40;;;5.30;;
26820;SDS011;37186;51.394;5.454;2023-06-04T11:35:40;6.68;;;6.47;;
26820;SDS011;37186;51.394;5.454;2023-06-04T11:38:42;7.45;;;7.25;;
26820;SDS011;37186;51.394;5.454;2023-06-04T11:42:04;8.35;;;8.15;;
26820;SDS011;37186;51.394;5.454;2023-06-04T11:45:06;8.90;;;8.65;;
26820;SDS011;37186;51.394;5.454;2023-06-04T11:48:07;8.50;;;8.30;;
26820;SDS011;37186;51.394;5.454;2023-06-04T11:51:11;9.50;;;9.20;;
26820;SDS011;37186;51.394;5.454;2023-06-04T11:54:13;9.02;;;8.73;;
26820;SDS011;37186;51.394;5.454;2023-06-04T11:57:14;9.25;;;8.95;;
26820;SDS011;37186;51.394;5.454;2023-06-04T12:00:15;9.60;;;9.30;;
26820;SDS011;37186;51.394;5.454;2023-06-04T12:03:17;9.60;;;9.30;;
26820;SDS011;37186;51.394;5.454;2023-06-04T12:06:18;9.02;;;8.75;;
26820;SDS011;37186;51.394;5.454;2023-06-04T12:09:27;9.70;;;9.40;;
26820;SDS011;37186;51.394;5.454;2023-06-04T12:12:31;9.52;;;9.23;;
26820;SDS011;37186;51.394;5.454;2023-06-04T12:15:31;9.60;;;9.30;;
26820;SDS011;37186;51.394;5.454;2023-06-04T12:18:32;9.55;;;9.25;;
26820;SDS011;37186;51.394;5.454;2023-06-04T12:21:32;8.75;;;8.52;;
26820;SDS011;37186;51.394;5.454;2023-06-04T12:24:34;8.60;;;8.40;;
26820;SDS011;37186;51.394;5.454;2023-06-04T12:27:46;7.65;;;7.45;;
26820;SDS011;37186;51.394;5.454;2023-06-04T12:30:48;8.40;;;8.20;;
26820;SDS011;37186;51.394;5.454;2023-06-04T12:33:49;11.35;;;11.05;;
26820;SDS011;37186;51.394;5.454;2023-06-04T12:36:49;14.70;;;14.25;;
26820;SDS011;37186;51.394;5.454;2023-06-04T12:39:50;11.55;;;11.25;;
26820;SDS011;37186;51.394;5.454;2023-06-04T12:42:51;13.63;;;13.23;;
26820;SDS011;37186;51.394;5.454;2023-06-04T12:45:52;9.98;;;9.68;;
26820;SDS011;37186;51.394;5.454;2023-06-04T12:48:53;11.10;;;10.80;;
26820;SDS011;37186;51.394;5.454;2023-06-04T12:51:54;11.40;;;11.10;;
26820;SDS011;37186;51.394;5.454;2023-06-04T12:54:55;11.82;;;11.45;;
26820;SDS011;37186;51.394;5.454;2023-06-04T12:57:55;14.48;;;14.07;;
26820;SDS011;37186;51.394;5.454;2023-06-04T13:00:56;12.93;;;12.52;;
26820;SDS011;37186;51.394;5.454;2023-06-04T13:03:56;12.88;;;12.48;;
26820;SDS011;37186;51.394;5.454;2023-06-04T13:06:57;12.25;;;11.85;;
26820;SDS011;37186;51.394;5.454;2023-06-04T13:09:59;12.13;;;11.75;;
26820;SDS011;37186;51.394;5.454;2023-06-04T13:13:00;11.85;;;11.50;;
26820;SDS011;37186;51.394;5.454;2023-06-04T13:16:01;12.27;;;11.88;;
26820;SDS011;37186;51.394;5.454;2023-06-04T13:19:02;11.98;;;11.60;;
26820;SDS011;37186;51.394;5.454;2023-06-04T13:22:02;11.45;;;11.13;;
26820;SDS011;37186;51.394;5.454;2023-06-04T13:25:03;11.80;;;11.45;;
26820;SDS011;37186;51.394;5.454;2023-06-04T13:28:04;11.88;;;11.52;;
26820;SDS011;37186;51.394;5.454;2023-06-04T13:31:05;11.65;;;11.35;;
26820;SDS011;37186;51.394;5.454;2023-06-04T13:34:06;11.80;;;11.45;;
26820;SDS011;37186;51.394;5.454;2023-06-04T13:37:06;11.48;;;11.18;;
26820;SDS011;37186;51.394;5.454;2023-06-04T13:40:10;11.23;;;10.93;;
26820;SDS011;37186;51.394;5.454;2023-06-04T13:43:11;10.75;;;10.45;;
26820;SDS011;37186;51.394;5.454;2023-06-04T13:46:12;10.77;;;10.48;;
26820;SDS011;37186;51.394;5.454;2023-06-04T13:49:12;12.10;;;11.70;;
26820;SDS011;37186;51.394;5.454;2023-06-04T13:52:13;16.48;;;15.98;;
26820;SDS011;37186;51.394;5.454;2023-06-04T13:55:13;17.27;;;16.67;;
26820;SDS011;37186;51.394;5.454;2023-06-04T13:58:14;26.63;;;25.65;;
26820;SDS011;37186;51.394;5.454;2023-06-04T14:01:15;21.98;;;21.23;;
26820;SDS011;37186;51.394;5.454;2023-06-04T14:04:16;22.42;;;21.65;;
26820;SDS011;37186;51.394;5.454;2023-06-04T14:07:17;28.75;;;27.67;;
26820;SDS011;37186;51.394;5.454;2023-06-04T14:10:18;32.20;;;31.00;;
26820;SDS011;37186;51.394;5.454;2023-06-04T14:13:18;34.42;;;33.13;;
26820;SDS011;37186;51.394;5.454;2023-06-04T14:16:19;37.08;;;35.65;;
26820;SDS011;37186;51.394;5.454;2023-06-04T14:19:19;44.03;;;42.28;;
26820;SDS011;37186;51.394;5.454;2023-06-04T14:22:20;45.03;;;43.25;;
26820;SDS011;37186;51.394;5.454;2023-06-04T14:25:20;50.72;;;48.67;;
26820;SDS011;37186;51.394;5.454;2023-06-04T14:28:21;48.22;;;46.33;;
26820;SDS011;37186;51.394;5.454;2023-06-04T14:31:21;51.17;;;49.17;;
26820;SDS011;37186;51.394;5.454;2023-06-04T14:34:22;51.63;;;49.60;;
26820;SDS011;37186;51.394;5.454;2023-06-04T14:37:23;49.53;;;47.63;;
26820;SDS011;37186;51.394;5.454;2023-06-04T14:40:23;47.40;;;45.65;;
26820;SDS011;37186;51.394;5.454;2023-06-04T14:43:24;47.58;;;45.80;;
26820;SDS011;37186;51.394;5.454;2023-06-04T14:46:25;35.72;;;34.45;;
26820;SDS011;37186;51.394;5.454;2023-06-04T14:49:26;42.33;;;40.80;;
26820;SDS011;37186;51.394;5.454;2023-06-04T14:52:26;33.83;;;32.63;;
26820;SDS011;37186;51.394;5.454;2023-06-04T14:55:28;39.75;;;38.30;;
26820;SDS011;37186;51.394;5.454;2023-06-04T14:58:28;34.53;;;33.33;;
26820;SDS011;37186;51.394;5.454;2023-06-04T15:01:29;39.50;;;38.10;;
26820;SDS011;37186;51.394;5.454;2023-06-04T15:04:29;37.15;;;35.85;;
26820;SDS011;37186;51.394;5.454;2023-06-04T15:07:30;41.95;;;40.45;;
26820;SDS011;37186;51.394;5.454;2023-06-04T15:10:31;33.22;;;32.03;;
26820;SDS011;37186;51.394;5.454;2023-06-04T15:13:33;40.72;;;39.25;;
26820;SDS011;37186;51.394;5.454;2023-06-04T15:16:34;43.83;;;42.25;;
26820;SDS011;37186;51.394;5.454;2023-06-04T15:19:34;38.47;;;37.08;;
26820;SDS011;37186;51.394;5.454;2023-06-04T15:22:35;45.60;;;43.92;;
26820;SDS011;37186;51.394;5.454;2023-06-04T15:25:35;56.17;;;54.03;;
26820;SDS011;37186;51.394;5.454;2023-06-04T15:28:39;53.50;;;51.47;;
26820;SDS011;37186;51.394;5.454;2023-06-04T15:31:39;47.67;;;45.88;;
26820;SDS011;37186;51.394;5.454;2023-06-04T15:34:40;30.52;;;29.42;;
26820;SDS011;37186;51.394;5.454;2023-06-04T15:37:41;26.88;;;25.92;;
26820;SDS011;37186;51.394;5.454;2023-06-04T15:40:41;32.30;;;31.15;;
26820;SDS011;37186;51.394;5.454;2023-06-04T15:43:42;32.28;;;31.13;;
26820;SDS011;37186;51.394;5.454;2023-06-04T15:46:42;32.80;;;31.60;;
26820;SDS011;37186;51.394;5.454;2023-06-04T15:49:43;29.20;;;28.17;;
26820;SDS011;37186;51.394;5.454;2023-06-04T15:52:44;31.75;;;30.65;;
26820;SDS011;37186;51.394;5.454;2023-06-04T15:55:45;31.42;;;30.33;;
26820;SDS011;37186;51.394;5.454;2023-06-04T15:58:46;31.67;;;30.55;;
26820;SDS011;37186;51.394;5.454;2023-06-04T16:01:46;34.03;;;32.78;;
26820;SDS011;37186;51.394;5.454;2023-06-04T16:04:47;35.10;;;33.80;;
26820;SDS011;37186;51.394;5.454;2023-06-04T16:07:47;36.75;;;35.38;;
26820;SDS011;37186;51.394;5.454;2023-06-04T16:10:48;42.60;;;41.05;;
26820;SDS011;37186;51.394;5.454;2023-06-04T16:13:49;37.83;;;36.47;;
26820;SDS011;37186;51.394;5.454;2023-06-04T16:16:50;43.15;;;41.58;;
26820;SDS011;37186;51.394;5.454;2023-06-04T16:19:50;41.83;;;40.33;;
26820;SDS011;37186;51.394;5.454;2023-06-04T16:22:51;48.30;;;46.58;;
26820;SDS011;37186;51.394;5.454;2023-06-04T16:25:51;47.13;;;45.42;;
26820;SDS011;37186;51.394;5.454;2023-06-04T16:28:52;44.58;;;42.97;;
26820;SDS011;37186;51.394;5.454;2023-06-04T16:31:52;42.95;;;41.42;;
26820;SDS011;37186;51.394;5.454;2023-06-04T16:34:53;41.03;;;39.55;;
26820;SDS011;37186;51.394;5.454;2023-06-04T16:37:54;38.60;;;37.22;;
26820;SDS011;37186;51.394;5.454;2023-06-04T16:40:54;35.42;;;34.17;;
26820;SDS011;37186;51.394;5.454;2023-06-04T16:43:55;43.70;;;42.15;;
26820;SDS011;37186;51.394;5.454;2023-06-04T16:46:56;39.15;;;37.75;;
26820;SDS011;37186;51.394;5.454;2023-06-04T16:49:57;42.30;;;40.78;;
26820;SDS011;37186;51.394;5.454;2023-06-04T16:52:58;46.17;;;44.50;;
26820;SDS011;37186;51.394;5.454;2023-06-04T16:55:59;47.45;;;45.70;;
26820;SDS011;37186;51.394;5.454;2023-06-04T16:59:00;38.75;;;37.38;;
26820;SDS011;37186;51.394;5.454;2023-06-04T17:02:00;42.30;;;40.78;;
26820;SDS011;37186;51.394;5.454;2023-06-04T17:05:03;48.58;;;46.80;;
26820;SDS011;37186;51.394;5.454;2023-06-04T17:08:04;50.70;;;48.80;;
26820;SDS011;37186;51.394;5.454;2023-06-04T17:11:04;51.40;;;49.50;;
26820;SDS011;37186;51.394;5.454;2023-06-04T17:14:05;59.22;;;57.03;;
26820;SDS011;37186;51.394;5.454;2023-06-04T17:17:06;61.53;;;59.28;;
26820;SDS011;37186;51.394;5.454;2023-06-04T17:20:06;61.80;;;59.50;;
26820;SDS011;37186;51.394;5.454;2023-06-04T17:23:20;51.50;;;49.63;;
26820;SDS011;37186;51.394;5.454;2023-06-04T17:26:25;40.83;;;39.35;;
26820;SDS011;37186;51.394;5.454;2023-06-04T17:29:27;40.25;;;38.85;;
26820;SDS011;37186;51.394;5.454;2023-06-04T17:32:27;42.83;;;41.25;;
26820;SDS011;37186;51.394;5.454;2023-06-04T17:35:28;75.20;;;72.38;;
26820;SDS011;37186;51.394;5.454;2023-06-04T17:38:28;80.50;;;77.38;;
26820;SDS011;37186;51.394;5.454;2023-06-04T17:41:29;105.43;;;101.22;;
26820;SDS011;37186;51.394;5.454;2023-06-04T17:44:29;105.85;;;101.68;;
26820;SDS011;37186;51.394;5.454;2023-06-04T17:47:30;94.88;;;91.18;;
26820;SDS011;37186;51.394;5.454;2023-06-04T17:50:31;97.35;;;93.57;;
26820;SDS011;37186;51.394;5.454;2023-06-04T17:53:31;94.30;;;90.72;;
26820;SDS011;37186;51.394;5.454;2023-06-04T17:56:32;115.53;;;110.93;;
26820;SDS011;37186;51.394;5.454;2023-06-04T17:59:33;91.85;;;88.25;;
26820;SDS011;37186;51.394;5.454;2023-06-04T18:02:33;82.55;;;79.35;;
26820;SDS011;37186;51.394;5.454;2023-06-04T18:05:34;78.03;;;75.00;;